Terminal Aerodrome Forecast
Issued by NWS

Home | Current Version | Previous Version | Graphics & Text | Print | Product List | Glossary On
Versions: 1 2 3 4 5 6 7 8 9 10 11 12 13 14 15 16 17
000
FTUS43 KABR 171700
TAFATY
TAF
KATY 171734Z 1718/1818 31009KT P6SM FEW009 BKN014
     FM172200 32006KT P6SM VCSH SCT015 BKN025 BKN100
     FM180000 VRB06KT P6SM FEW150
     FM180600 20006KT P6SM VCSH BKN040 OVC090
     FM181200 26009KT P6SM SCT200=

USA.gov is the U.S. government's official web portal to all federal, state and local government web resources and services.